Time;durP1;ratioP1;P1;durP2;ratioP2;P2;SDS_P1;SDS_P2;PMS_P1;PMS_P2;Temp;Humidity;BMP_temperature;BMP_pressure;BME280_temperature;BME280_humidity;BME280_pressure;Samples;Min_cycle;Max_cycle;Signal;HPM_P1;HPM_P2
2023/08/13 00:00:39;;;;;;;;;;;;;;;;;;5051633;28;19989;-61
2023/08/13 00:03:05;;;;;;;;;;;;;;;;;;5054470;28;19927;-61
2023/08/13 00:05:31;;;;;;;;;;;;;;;;;;5054412;28;19931;-60
2023/08/13 00:07:56;;;;;;;;;;;;;;;;;;5049585;28;19964;-60
2023/08/13 00:10:22;;;;;;;;;;;;;;;;;;5051730;28;20335;-60
2023/08/13 00:12:48;;;;;;;;;;;;;;;;;;5048110;28;20003;-61
2023/08/13 00:15:14;;;;;;;;;;;;;;;;;;5050507;28;19925;-61
2023/08/13 00:17:40;;;;;;;;;;;;;;;;;;5051367;28;20304;-60
2023/08/13 00:20:07;;;;;;;;;;;;;;;;;;5054336;28;19947;-60
2023/08/13 00:22:33;;;;;;;;;;;;;;;;;;5049879;28;19929;-61
2023/08/13 00:24:58;;;;;;;;;;;;;;;;;;5045950;28;19936;-60
2023/08/13 00:27:24;;;;;;;;;;;;;;;;;;5051073;28;19925;-60
2023/08/13 00:29:50;;;;;;;;;;;;;;;;;;5052417;28;19944;-61
2023/08/13 00:32:16;;;;;;;;;;;;;;;;;;5051185;28;19931;-60
2023/08/13 00:34:42;;;;;;;;;;;;;;;;;;5052191;28;19921;-61
2023/08/13 00:37:08;;;;;;;;;;;;;;;;;;5052603;28;19921;-61
2023/08/13 00:39:34;;;;;;;;;;;;;;;;;;5053038;28;19921;-60
2023/08/13 00:42:00;;;;;;;;;;;;;;;;;;5035015;28;19925;-60
2023/08/13 00:44:26;;;;;;;;;;;;;;;;;;5052320;28;20370;-60
2023/08/13 00:46:52;;;;;;;;;;;;;;;;;;5048442;28;19974;-60
2023/08/13 00:49:17;;;;;;;;;;;;;;;;;;5060623;28;19935;-60
2023/08/13 00:51:43;;;;;;;;;;;;;;;;;;5050701;28;19936;-60
2023/08/13 00:54:09;;;;;;;;;;;;;;;;;;5049473;28;19939;-60
2023/08/13 00:56:36;;;;;;;;;;;;;;;;;;5048817;28;19925;-61
2023/08/13 00:59:02;;;;;;;;;;;;;;;;;;5033997;28;19929;-60
2023/08/13 01:01:28;;;;;;;;;;;;;;;;;;5036813;28;19921;-61
2023/08/13 01:03:53;;;;;;;;;;;;;;;;;;5048426;28;20388;-60
2023/08/13 01:06:21;;;;;;;;;;;;;;;;;;5048627;28;19925;-60
2023/08/13 01:08:47;;;;;;;;;;;;;;;;;;5052266;28;19960;-61
2023/08/13 01:11:13;;;;;;;;;;;;;;;;;;5052727;28;19964;-60
2023/08/13 01:13:38;;;;;;;;;;;;;;;;;;5050207;28;19990;-60
2023/08/13 01:16:04;;;;;;;;;;;;;;;;;;5049206;28;19924;-60
2023/08/13 01:18:30;;;;;;;;;;;;;;;;;;5049804;28;19936;-60
2023/08/13 01:20:56;;;;;;;;;;;;;;;;;;5049751;28;20373;-60
2023/08/13 01:23:22;;;;;;;;;;;;;;;;;;5031983;28;19929;-60
2023/08/13 01:25:48;;;;;;;;;;;;;;;;;;5053176;28;20181;-60
2023/08/13 01:28:14;;;;;;;;;;;;;;;;;;5048189;28;20430;-60
2023/08/13 01:30:40;;;;;;;;;;;;;;;;;;5051584;28;20489;-60
2023/08/13 01:33:07;;;;;;;;;;;;;;;;;;5037552;28;19925;-60
2023/08/13 01:35:33;;;;;;;;;;;;;;;;;;5050888;28;19963;-60
2023/08/13 01:37:59;;;;;;;;;;;;;;;;;;5045869;28;19964;-60
2023/08/13 01:40:25;;;;;;;;;;;;;;;;;;5050840;28;20281;-60
2023/08/13 01:42:51;;;;;;;;;;;;;;;;;;5049846;28;20015;-60
2023/08/13 01:45:17;;;;;;;;;;;;;;;;;;5043450;28;19973;-60
2023/08/13 01:47:43;;;;;;;;;;;;;;;;;;5050031;28;20324;-61
2023/08/13 01:50:09;;;;;;;;;;;;;;;;;;5048696;28;19925;-60
2023/08/13 01:52:35;;;;;;;;;;;;;;;;;;5048340;28;19952;-60
2023/08/13 01:55:01;;;;;;;;;;;;;;;;;;5048854;28;19921;-60
2023/08/13 01:57:27;;;;;;;;;;;;;;;;;;5049908;28;20392;-60
2023/08/13 01:59:53;;;;;;;;;;;;;;;;;;5038160;28;19928;-60
2023/08/13 02:02:18;;;;;;;;;;;;;;;;;;5057696;28;20270;-60
2023/08/13 02:04:44;;;;;;;;;;;;;;;;;;5047539;28;20015;-60
2023/08/13 02:07:10;;;;;;;;;;;;;;;;;;5047706;28;19955;-60
2023/08/13 02:09:36;;;;;;;;;;;;;;;;;;5047595;28;19921;-60
2023/08/13 02:12:02;;;;;;;;;;;;;;;;;;5050287;28;19927;-60
2023/08/13 02:14:28;;;;;;;;;;;;;;;;;;5050388;28;20385;-60
2023/08/13 02:16:54;;;;;;;;;;;;;;;;;;5043561;28;20266;-60
2023/08/13 02:19:20;;;;;;;;;;;;;;;;;;5050991;28;19935;-60
2023/08/13 02:21:46;;;;;;;;;;;;;;;;;;5050729;28;19920;-60
2023/08/13 02:24:11;;;;;;;;;;;;;;;;;;5046824;28;19967;-60
2023/08/13 02:26:37;;;;;;;;;;;;;;;;;;5047508;28;19931;-60
2023/08/13 02:29:03;;;;;;;;;;;;;;;;;;5041115;28;20294;-60
2023/08/13 02:31:29;;;;;;;;;;;;;;;;;;5049933;28;19932;-60
2023/08/13 02:33:55;;;;;;;;;;;;;;;;;;5047721;28;19921;-60
2023/08/13 02:36:21;;;;;;;;;;;;;;;;;;5051172;28;20384;-60
2023/08/13 02:38:47;;;;;;;;;;;;;;;;;;5048164;28;19929;-60
2023/08/13 02:41:13;;;;;;;;;;;;;;;;;;5058930;28;20028;-60
2023/08/13 02:43:39;;;;;;;;;;;;;;;;;;5042310;28;19931;-60
2023/08/13 02:46:04;;;;;;;;;;;;;;;;;;5039439;28;19935;-60
2023/08/13 02:48:30;;;;;;;;;;;;;;;;;;5044175;28;20384;-60
2023/08/13 02:50:56;;;;;;;;;;;;;;;;;;5050446;28;19921;-60
2023/08/13 02:53:22;;;;;;;;;;;;;;;;;;5051146;28;19921;-60
2023/08/13 02:55:49;;;;;;;;;;;;;;;;;;5046490;28;19921;-60
2023/08/13 02:58:14;;;;;;;;;;;;;;;;;;5039451;28;19974;-61
2023/08/13 03:00:40;;;;;;;;;;;;;;;;;;5045762;28;19925;-60
2023/08/13 03:03:06;;;;;;;;;;;;;;;;;;5033133;28;19968;-60
2023/08/13 03:05:32;;;;;;;;;;;;;;;;;;5045708;28;20019;-60
2023/08/13 03:07:58;;;;;;;;;;;;;;;;;;5049599;28;20321;-60
2023/08/13 03:10:24;;;;;;;;;;;;;;;;;;5048256;28;19935;-61
2023/08/13 03:12:50;;;;;;;;;;;;;;;;;;5047637;28;19920;-61
2023/08/13 03:15:16;;;;;;;;;;;;;;;;;;5040772;28;19925;-61
2023/08/13 03:17:42;;;;;;;;;;;;;;;;;;5046882;28;20329;-61
2023/08/13 03:20:08;;;;;;;;;;;;;;;;;;5048179;28;19922;-60
2023/08/13 03:22:34;;;;;;;;;;;;;;;;;;5041953;28;19971;-60
2023/08/13 03:25:00;;;;;;;;;;;;;;;;;;5048875;28;19982;-60
2023/08/13 03:27:25;;;;;;;;;;;;;;;;;;5043562;28;20011;-60
2023/08/13 03:29:51;;;;;;;;;;;;;;;;;;5041809;28;19920;-60
2023/08/13 03:32:17;;;;;;;;;;;;;;;;;;5046136;28;19956;-60
2023/08/13 03:34:43;;;;;;;;;;;;;;;;;;5052216;28;19924;-60
2023/08/13 03:37:09;;;;;;;;;;;;;;;;;;5041828;28;19929;-60
2023/08/13 03:39:35;;;;;;;;;;;;;;;;;;5046326;28;20235;-60
2023/08/13 03:42:01;;;;;;;;;;;;;;;;;;5043805;28;19963;-60
2023/08/13 03:44:27;;;;;;;;;;;;;;;;;;5044975;28;19925;-60
2023/08/13 03:46:53;;;;;;;;;;;;;;;;;;5040361;28;19931;-61
2023/08/13 03:49:18;;;;;;;;;;;;;;;;;;5052626;28;19928;-60
2023/08/13 03:51:44;;;;;;;;;;;;;;;;;;5043765;28;19929;-60
2023/08/13 03:54:10;;;;;;;;;;;;;;;;;;5046150;28;20037;-60
2023/08/13 03:56:36;;;;;;;;;;;;;;;;;;5051506;28;19924;-60
2023/08/13 03:59:02;;;;;;;;;;;;;;;;;;5050937;28;19959;-60
2023/08/13 04:01:28;;;;;;;;;;;;;;;;;;5041640;28;19925;-61
2023/08/13 04:03:54;;;;;;;;;;;;;;;;;;5043157;28;20348;-60
2023/08/13 04:06:20;;;;;;;;;;;;;;;;;;5049278;28;19921;-60
2023/08/13 04:08:46;;;;;;;;;;;;;;;;;;5052083;28;20278;-60
2023/08/13 04:11:11;;;;;;;;;;;;;;;;;;5046858;28;19968;-60
2023/08/13 04:13:37;;;;;;;;;;;;;;;;;;5050922;28;19925;-60
2023/08/13 04:16:03;;;;;;;;;;;;;;;;;;5036861;28;19925;-60
2023/08/13 04:18:29;;;;;;;;;;;;;;;;;;5053364;28;19929;-60
2023/08/13 04:20:55;;;;;;;;;;;;;;;;;;5056727;28;20481;-60
2023/08/13 04:23:21;;;;;;;;;;;;;;;;;;5046539;28;19941;-60
2023/08/13 04:25:47;;;;;;;;;;;;;;;;;;5042993;28;19925;-60
2023/08/13 04:28:13;;;;;;;;;;;;;;;;;;5042852;28;19920;-60
2023/08/13 04:30:39;;;;;;;;;;;;;;;;;;5044827;28;20000;-60
2023/08/13 04:33:05;;;;;;;;;;;;;;;;;;5050043;28;19925;-60
2023/08/13 04:35:30;;;;;;;;;;;;;;;;;;5034641;28;20362;-60
2023/08/13 04:37:56;;;;;;;;;;;;;;;;;;5038664;28;20424;-60
2023/08/13 04:40:22;;;;;;;;;;;;;;;;;;5047436;28;19921;-61
2023/08/13 04:42:48;;;;;;;;;;;;;;;;;;5052179;28;19925;-61
2023/08/13 04:45:15;;;;;;;;;;;;;;;;;;5051277;28;19933;-61
2023/08/13 04:47:41;;;;;;;;;;;;;;;;;;5052860;28;19929;-61
2023/08/13 04:50:07;;;;;;;;;;;;;;;;;;5050670;28;19924;-60
2023/08/13 04:52:33;;;;;;;;;;;;;;;;;;5051688;28;19925;-60
2023/08/13 04:54:59;;;;;;;;;;;;;;;;;;5045644;28;19979;-61
2023/08/13 04:57:26;;;;;;;;;;;;;;;;;;5049264;28;19929;-61
2023/08/13 04:59:51;;;;;;;;;;;;;;;;;;5048984;28;20015;-61
2023/08/13 05:02:17;;;;;;;;;;;;;;;;;;5043274;28;19925;-61
2023/08/13 05:04:43;;;;;;;;;;;;;;;;;;5057295;28;19933;-60
2023/08/13 05:07:09;;;;;;;;;;;;;;;;;;5051352;28;19998;-61
2023/08/13 05:09:35;;;;;;;;;;;;;;;;;;5047577;28;19929;-61
2023/08/13 05:12:01;;;;;;;;;;;;;;;;;;5047577;28;19933;-61
2023/08/13 05:14:27;;;;;;;;;;;;;;;;;;5048086;28;19924;-60
2023/08/13 05:16:53;;;;;;;;;;;;;;;;;;5048088;28;20351;-60
2023/08/13 05:19:19;;;;;;;;;;;;;;;;;;5050492;28;19929;-60
2023/08/13 05:21:45;;;;;;;;;;;;;;;;;;5050677;28;19928;-61
2023/08/13 05:24:11;;;;;;;;;;;;;;;;;;5051935;28;20003;-60
2023/08/13 05:26:37;;;;;;;;;;;;;;;;;;5052278;28;19978;-60
2023/08/13 05:29:03;;;;;;;;;;;;;;;;;;5046782;28;19928;-60
2023/08/13 05:31:29;;;;;;;;;;;;;;;;;;5051047;28;19925;-60
2023/08/13 05:33:57;;;;;;;;;;;;;;;;;;5049137;28;20022;-61
2023/08/13 05:36:23;;;;;;;;;;;;;;;;;;5043622;28;20397;-60
2023/08/13 05:38:49;;;;;;;;;;;;;;;;;;5057793;23;19968;-66
2023/08/13 05:41:15;;;;;;;;;;;;;;;;;;5058164;28;20501;-66
2023/08/13 05:43:41;;;;;;;;;;;;;;;;;;5060782;28;19921;-66
2023/08/13 05:46:07;;;;;;;;;;;;;;;;;;5057715;28;19932;-66
2023/08/13 05:48:33;;;;;;;;;;;;;;;;;;5070193;28;19928;-66
2023/08/13 05:50:59;;;;;;;;;;;;;;;;;;5063763;28;20008;-66
2023/08/13 05:53:25;;;;;;;;;;;;;;;;;;5062499;28;19947;-66
2023/08/13 05:55:51;;;;;;;;;;;;;;;;;;5063892;28;19931;-66
2023/08/13 05:58:17;;;;;;;;;;;;;;;;;;5066594;28;19966;-66
2023/08/13 06:00:43;;;;;;;;;;;;;;;;;;5066610;28;19925;-66
2023/08/13 06:03:09;;;;;;;;;;;;;;;;;;5067993;28;20803;-66
2023/08/13 06:05:34;;;;;;;;;;;;;;;;;;5058213;28;19924;-66
2023/08/13 06:08:00;;;;;;;;;;;;;;;;;;5055193;28;19924;-66
2023/08/13 06:10:26;;;;;;;;;;;;;;;;;;5053508;28;19921;-66
2023/08/13 06:12:52;;;;;;;;;;;;;;;;;;5064436;28;20046;-66
2023/08/13 06:15:18;;;;;;;;;;;;;;;;;;5057290;28;20416;-66
2023/08/13 06:17:46;;;;;;;;;;;;;;;;;;5070377;28;19927;-66
2023/08/13 06:20:12;;;;;;;;;;;;;;;;;;5065169;28;20093;-66
2023/08/13 06:22:38;;;;;;;;;;;;;;;;;;5053315;28;20010;-66
2023/08/13 06:25:04;;;;;;;;;;;;;;;;;;5069834;28;19924;-66
2023/08/13 06:27:31;;;;;;;;;;;;;;;;;;5061786;28;20333;-66
2023/08/13 06:29:57;;;;;;;;;;;;;;;;;;5052654;28;19921;-66
2023/08/13 06:32:23;;;;;;;;;;;;;;;;;;5066537;28;19924;-66
2023/08/13 06:34:48;;;;;;;;;;;;;;;;;;5065954;28;19924;-66
2023/08/13 06:37:14;;;;;;;;;;;;;;;;;;5062178;28;19921;-66
2023/08/13 06:39:40;;;;;;;;;;;;;;;;;;5065619;28;20398;-66
2023/08/13 06:42:06;;;;;;;;;;;;;;;;;;5055926;28;19974;-66
2023/08/13 06:44:32;;;;;;;;;;;;;;;;;;5070574;28;19924;-66
2023/08/13 06:46:58;;;;;;;;;;;;;;;;;;5056963;28;19946;-66
2023/08/13 06:49:24;;;;;;;;;;;;;;;;;;5071724;28;19970;-66
2023/08/13 06:51:50;;;;;;;;;;;;;;;;;;5067796;28;19968;-66
2023/08/13 06:54:16;;;;;;;;;;;;;;;;;;5068797;28;20337;-66
2023/08/13 06:56:42;;;;;;;;;;;;;;;;;;5070038;28;20419;-66
2023/08/13 06:59:08;;;;;;;;;;;;;;;;;;5068318;28;20878;-67
2023/08/13 07:01:35;;;;;;;;;;;;;;;;;;5060410;28;20023;-67
2023/08/13 07:04:01;;;;;;;;;;;;;;;;;;5069547;28;19925;-66
2023/08/13 07:06:27;;;;;;;;;;;;;;;;;;5058633;28;19927;-66
2023/08/13 07:08:53;;;;;;;;;;;;;;;;;;5066782;28;19970;-66
2023/08/13 07:11:20;;;;;;;;;;;;;;;;;;5065690;28;21276;-66
2023/08/13 07:13:46;;;;;;;;;;;;;;;;;;5065927;28;19920;-66
2023/08/13 07:16:13;;;;;;;;;;;;;;;;;;5064122;28;19943;-66
2023/08/13 07:18:42;;;;;;;;;;;;;;;;;;5061184;28;19936;-67
2023/08/13 07:21:08;;;;;;;;;;;;;;;;;;5056602;28;19969;-66
2023/08/13 07:23:34;;;;;;;;;;;;;;;;;;5055285;28;19921;-66
2023/08/13 07:26:00;;;;;;;;;;;;;;;;;;5063657;28;19935;-66
2023/08/13 07:28:26;;;;;;;;;;;;;;;;;;5061569;28;19924;-66
2023/08/13 07:30:52;;;;;;;;;;;;;;;;;;5060370;28;19921;-66
2023/08/13 07:33:18;;;;;;;;;;;;;;;;;;5054331;28;19933;-66
2023/08/13 07:35:44;;;;;;;;;;;;;;;;;;5071334;28;19931;-66
2023/08/13 07:38:10;;;;;;;;;;;;;;;;;;5068602;28;19929;-66
2023/08/13 07:40:36;;;;;;;;;;;;;;;;;;5073117;28;19920;-66
2023/08/13 07:43:02;;;;;;;;;;;;;;;;;;5073261;28;20234;-65
2023/08/13 07:45:29;;;;;;;;;;;;;;;;;;5055686;28;20015;-65
2023/08/13 07:47:55;;;;;;;;;;;;;;;;;;5063946;28;19920;-64
2023/08/13 07:50:21;;;;;;;;;;;;;;;;;;5074109;28;19924;-65
2023/08/13 07:52:47;;;;;;;;;;;;;;;;;;5071793;28;19974;-64
2023/08/13 07:55:13;;;;;;;;;;;;;;;;;;5071858;28;19955;-65
2023/08/13 07:57:39;;;;;;;;;;;;;;;;;;5070415;28;19924;-64
2023/08/13 08:00:08;;;;;;;;;;;;;;;;;;5059426;28;20267;-64
2023/08/13 08:02:34;;;;;;;;;;;;;;;;;;5066806;28;19966;-64
2023/08/13 08:04:59;;;;;;;;;;;;;;;;;;5064979;28;19928;-64
2023/08/13 08:07:25;;;;;;;;;;;;;;;;;;5059873;28;20364;-65
2023/08/13 08:09:51;;;;;;;;;;;;;;;;;;5067007;28;20022;-64
2023/08/13 08:12:17;;;;;;;;;;;;;;;;;;5069280;28;19920;-65
2023/08/13 08:14:43;;;;;;;;;;;;;;;;;;5066192;28;19920;-64
2023/08/13 08:17:09;;;;;;;;;;;;;;;;;;5055914;28;19974;-64
2023/08/13 08:19:35;;;;;;;;;;;;;;;;;;5055359;28;20355;-65
2023/08/13 08:22:01;;;;;;;;;;;;;;;;;;5063449;28;20546;-64
2023/08/13 08:24:27;;;;;;;;;;;;;;;;;;5071809;28;19960;-64
2023/08/13 08:26:52;;;;;;;;;;;;;;;;;;5070853;28;19966;-64
2023/08/13 08:29:18;;;;;;;;;;;;;;;;;;5071182;28;19932;-66
2023/08/13 08:31:44;;;;;;;;;;;;;;;;;;5063063;28;19921;-67
2023/08/13 08:34:10;;;;;;;;;;;;;;;;;;5070789;28;19951;-66
2023/08/13 08:36:36;;;;;;;;;;;;;;;;;;5063435;28;19960;-66
2023/08/13 08:39:03;;;;;;;;;;;;;;;;;;5064350;28;20400;-66
2023/08/13 08:41:29;;;;;;;;;;;;;;;;;;5067830;28;20787;-66
2023/08/13 08:43:55;;;;;;;;;;;;;;;;;;5053157;28;19983;-66
2023/08/13 08:46:21;;;;;;;;;;;;;;;;;;5071090;28;19924;-66
2023/08/13 08:48:47;;;;;;;;;;;;;;;;;;5064671;28;20282;-66
2023/08/13 08:51:12;;;;;;;;;;;;;;;;;;5067687;28;19995;-66
2023/08/13 08:53:38;;;;;;;;;;;;;;;;;;5063109;28;20008;-67
2023/08/13 08:56:04;;;;;;;;;;;;;;;;;;5062235;28;20020;-66
2023/08/13 08:58:30;;;;;;;;;;;;;;;;;;5060284;28;19928;-66
2023/08/13 09:01:00;;;;;;;;;;;;;;;;;;5065766;28;19920;-67
2023/08/13 09:03:26;;;;;;;;;;;;;;;;;;5068359;28;19925;-67
2023/08/13 09:05:52;;;;;;;;;;;;;;;;;;5065252;28;19952;-66
2023/08/13 09:08:19;;;;;;;;;;;;;;;;;;5059264;28;19926;-66
2023/08/13 09:10:45;;;;;;;;;;;;;;;;;;5065905;28;20601;-67
2023/08/13 09:13:10;;;;;;;;;;;;;;;;;;5066729;28;19925;-66
2023/08/13 09:15:37;;;;;;;;;;;;;;;;;;5064083;28;19921;-66
2023/08/13 09:18:02;;;;;;;;;;;;;;;;;;5066946;28;20664;-67
2023/08/13 09:20:28;;;;;;;;;;;;;;;;;;5064694;28;19968;-66
2023/08/13 09:22:54;;;;;;;;;;;;;;;;;;5062641;28;19975;-66
2023/08/13 09:25:20;;;;;;;;;;;;;;;;;;5059242;28;19931;-66
2023/08/13 09:27:46;;;;;;;;;;;;;;;;;;5051903;28;19928;-67
2023/08/13 09:30:12;;;;;;;;;;;;;;;;;;5070876;28;20011;-67
2023/08/13 09:32:38;;;;;;;;;;;;;;;;;;5072482;28;19928;-66
2023/08/13 09:35:04;;;;;;;;;;;;;;;;;;5070169;28;19921;-67
2023/08/13 09:37:30;;;;;;;;;;;;;;;;;;5068899;28;19925;-66
2023/08/13 09:39:55;;;;;;;;;;;;;;;;;;5065654;28;19932;-67
2023/08/13 09:42:21;;;;;;;;;;;;;;;;;;5071448;28;20269;-67
2023/08/13 09:44:47;;;;;;;;;;;;;;;;;;5070082;28;19951;-66
2023/08/13 09:47:17;;;;;;;;;;;;;;;;;;5069951;28;19925;-67
2023/08/13 09:49:43;;;;;;;;;;;;;;;;;;5065614;28;19927;-67
2023/08/13 09:52:09;;;;;;;;;;;;;;;;;;5070849;28;19920;-67
2023/08/13 09:54:35;;;;;;;;;;;;;;;;;;5068253;28;19925;-67
2023/08/13 09:57:01;;;;;;;;;;;;;;;;;;5069299;28;20441;-66
2023/08/13 09:59:27;;;;;;;;;;;;;;;;;;5060211;28;19935;-67
2023/08/13 10:01:53;;;;;;;;;;;;;;;;;;5053127;28;19924;-66
2023/08/13 10:04:19;;;;;;;;;;;;;;;;;;5060529;28;19924;-67
2023/08/13 10:06:46;;;;;;;;;;;;;;;;;;5066704;28;19939;-66
2023/08/13 10:09:12;;;;;;;;;;;;;;;;;;5061817;28;20445;-66
2023/08/13 10:11:38;;;;;;;;;;;;;;;;;;5058552;28;19924;-66
2023/08/13 10:14:04;;;;;;;;;;;;;;;;;;5063703;28;19968;-66
2023/08/13 10:16:30;;;;;;;;;;;;;;;;;;5071014;28;19924;-67
2023/08/13 10:18:56;;;;;;;;;;;;;;;;;;5071678;28;19930;-66
2023/08/13 10:21:22;;;;;;;;;;;;;;;;;;5070066;28;20023;-66
2023/08/13 10:23:48;;;;;;;;;;;;;;;;;;5063841;28;19920;-66
2023/08/13 10:26:14;;;;;;;;;;;;;;;;;;5059242;28;20341;-66
2023/08/13 10:28:39;;;;;;;;;;;;;;;;;;5066075;28;19924;-66
2023/08/13 10:31:05;;;;;;;;;;;;;;;;;;5058926;28;19921;-66
2023/08/13 10:33:31;;;;;;;;;;;;;;;;;;5063919;28;19982;-66
2023/08/13 10:35:57;;;;;;;;;;;;;;;;;;5064770;28;19927;-66
2023/08/13 10:38:23;;;;;;;;;;;;;;;;;;5068184;28;19968;-66
2023/08/13 10:40:49;;;;;;;;;;;;;;;;;;5066160;28;19928;-67
2023/08/13 10:43:15;;;;;;;;;;;;;;;;;;5071024;28;20316;-66
2023/08/13 10:45:41;;;;;;;;;;;;;;;;;;5069744;28;19924;-66
2023/08/13 10:48:07;;;;;;;;;;;;;;;;;;5068017;28;20325;-67
2023/08/13 10:50:33;;;;;;;;;;;;;;;;;;5065961;28;20003;-67
2023/08/13 10:52:59;;;;;;;;;;;;;;;;;;5062442;28;19922;-71
2023/08/13 10:55:25;;;;;;;;;;;;;;;;;;5068992;28;19928;-67
2023/08/13 10:57:50;;;;;;;;;;;;;;;;;;5070135;28;20336;-66
2023/08/13 11:00:16;;;;;;;;;;;;;;;;;;5067807;28;19973;-67
2023/08/13 11:02:42;;;;;;;;;;;;;;;;;;5050395;28;19921;-67
2023/08/13 11:05:08;;;;;;;;;;;;;;;;;;5050371;28;19921;-67
2023/08/13 11:07:35;;;;;;;;;;;;;;;;;;5049764;28;20396;-67
2023/08/13 11:10:01;;;;;;;;;;;;;;;;;;5063424;28;19939;-66
2023/08/13 11:12:27;;;;;;;;;;;;;;;;;;5050531;28;19925;-66
2023/08/13 11:14:53;;;;;;;;;;;;;;;;;;5056989;28;19968;-67
2023/08/13 11:17:19;;;;;;;;;;;;;;;;;;5054753;28;19974;-66
2023/08/13 11:19:44;;;;;;;;;;;;;;;;;;5067352;28;19924;-67
2023/08/13 11:22:10;;;;;;;;;;;;;;;;;;5063388;28;19931;-66
2023/08/13 11:24:36;;;;;;;;;;;;;;;;;;5065598;28;19925;-67
2023/08/13 11:27:02;;;;;;;;;;;;;;;;;;5062184;28;20308;-67
2023/08/13 11:29:30;;;;;;;;;;;;;;;;;;5062049;28;19921;-66
2023/08/13 11:31:56;;;;;;;;;;;;;;;;;;5059047;28;19928;-66
2023/08/13 11:34:22;;;;;;;;;;;;;;;;;;5063295;28;19943;-66
2023/08/13 11:36:49;;;;;;;;;;;;;;;;;;5057232;28;19928;-66
2023/08/13 11:39:15;;;;;;;;;;;;;;;;;;5070874;28;19931;-66
2023/08/13 11:41:41;;;;;;;;;;;;;;;;;;5068137;28;19929;-67
2023/08/13 11:44:07;;;;;;;;;;;;;;;;;;5072089;28;20296;-66
2023/08/13 11:46:33;;;;;;;;;;;;;;;;;;5073850;28;20003;-66
2023/08/13 11:48:58;;;;;;;;;;;;;;;;;;5069155;28;19920;-66
2023/08/13 11:51:25;;;;;;;;;;;;;;;;;;5070879;28;20512;-66
2023/08/13 11:53:51;;;;;;;;;;;;;;;;;;5074562;28;20094;-66
2023/08/13 11:56:17;;;;;;;;;;;;;;;;;;5071007;28;19951;-66
2023/08/13 11:58:43;;;;;;;;;;;;;;;;;;5066643;28;19929;-66
2023/08/13 12:01:10;;;;;;;;;;;;;;;;;;5061723;28;19999;-67
2023/08/13 12:03:36;;;;;;;;;;;;;;;;;;5060758;28;19986;-67
2023/08/13 12:06:02;;;;;;;;;;;;;;;;;;5069694;28;19924;-66
2023/08/13 12:08:28;;;;;;;;;;;;;;;;;;5070253;28;19971;-67
2023/08/13 12:10:54;;;;;;;;;;;;;;;;;;5062986;28;20012;-67
2023/08/13 12:13:20;;;;;;;;;;;;;;;;;;5070963;28;19935;-67
2023/08/13 12:15:46;;;;;;;;;;;;;;;;;;5072219;28;19924;-66
2023/08/13 12:18:12;;;;;;;;;;;;;;;;;;5058019;28;19925;-67
2023/08/13 12:20:38;;;;;;;;;;;;;;;;;;5058930;28;20323;-66
2023/08/13 12:23:04;;;;;;;;;;;;;;;;;;5055136;28;19924;-67
2023/08/13 12:25:29;;;;;;;;;;;;;;;;;;5058314;28;20807;-62
2023/08/13 12:27:55;;;;;;;;;;;;;;;;;;5061072;28;20007;-62
2023/08/13 12:30:21;;;;;;;;;;;;;;;;;;5066741;28;19927;-59
2023/08/13 12:32:47;;;;;;;;;;;;;;;;;;5060933;28;19932;-59
2023/08/13 12:35:13;;;;;;;;;;;;;;;;;;5055744;28;19925;-59
2023/08/13 12:37:39;;;;;;;;;;;;;;;;;;5071117;28;19974;-61
2023/08/13 12:40:05;;;;;;;;;;;;;;;;;;5063372;28;20530;-61
2023/08/13 12:42:31;;;;;;;;;;;;;;;;;;5053916;28;19974;-61
2023/08/13 12:44:58;;;;;;;;;;;;;;;;;;5048358;28;19920;-61
2023/08/13 12:47:23;;;;;;;;;;;;;;;;;;5070485;28;19928;-61
2023/08/13 12:49:50;;;;;;;;;;;;;;;;;;5070962;28;19924;-61
2023/08/13 12:52:16;;;;;;;;;;;;;;;;;;5047212;28;20313;-61
2023/08/13 12:54:42;;;;;;;;;;;;;;;;;;5062768;28;19924;-61
2023/08/13 12:57:08;;;;;;;;;;;;;;;;;;5069255;28;19926;-61
2023/08/13 12:59:34;;;;;;;;;;;;;;;;;;5070605;28;19930;-61
2023/08/13 13:01:59;;;;;;;;;;;;;;;;;;5064327;28;20318;-61
2023/08/13 13:04:25;;;;;;;;;;;;;;;;;;5067385;28;19928;-61
2023/08/13 13:06:51;;;;;;;;;;;;;;;;;;5068329;28;19986;-61
2023/08/13 13:09:17;;;;;;;;;;;;;;;;;;5069814;28;19925;-61
2023/08/13 13:11:43;;;;;;;;;;;;;;;;;;5055214;28;19924;-61
2023/08/13 13:14:09;;;;;;;;;;;;;;;;;;5061976;28;19921;-61
2023/08/13 13:16:35;;;;;;;;;;;;;;;;;;5054097;28;19930;-61
2023/08/13 13:19:01;;;;;;;;;;;;;;;;;;5061931;28;20016;-61
2023/08/13 13:21:27;;;;;;;;;;;;;;;;;;5063524;28;19925;-61
2023/08/13 13:23:53;;;;;;;;;;;;;;;;;;5067615;28;20015;-61
2023/08/13 13:26:19;;;;;;;;;;;;;;;;;;5069991;28;19920;-61
2023/08/13 13:28:44;;;;;;;;;;;;;;;;;;5068733;28;21994;-61
2023/08/13 13:31:11;;;;;;;;;;;;;;;;;;5068690;28;19924;-61
2023/08/13 13:33:37;;;;;;;;;;;;;;;;;;5064773;28;19928;-61
2023/08/13 13:36:05;;;;;;;;;;;;;;;;;;5060330;28;19928;-61
2023/08/13 13:38:31;;;;;;;;;;;;;;;;;;5062992;28;19936;-61
2023/08/13 13:40:57;;;;;;;;;;;;;;;;;;5066808;28;20317;-61
2023/08/13 13:43:22;;;;;;;;;;;;;;;;;;5066069;28;19924;-61
2023/08/13 13:45:48;;;;;;;;;;;;;;;;;;5060029;28;19925;-61
2023/08/13 13:48:14;;;;;;;;;;;;;;;;;;5052692;28;19920;-61
2023/08/13 13:50:40;;;;;;;;;;;;;;;;;;5057811;28;20016;-61
2023/08/13 13:53:06;;;;;;;;;;;;;;;;;;5064998;28;19921;-61
2023/08/13 13:55:32;;;;;;;;;;;;;;;;;;5070379;28;19920;-61
2023/08/13 13:57:58;;;;;;;;;;;;;;;;;;5067954;28;20555;-61
2023/08/13 14:00:24;;;;;;;;;;;;;;;;;;5055419;28;19935;-61
2023/08/13 14:02:49;;;;;;;;;;;;;;;;;;5069603;28;20071;-61
2023/08/13 14:05:15;;;;;;;;;;;;;;;;;;5070315;28;19920;-61
2023/08/13 14:07:41;;;;;;;;;;;;;;;;;;5071615;28;19924;-61
2023/08/13 14:10:07;;;;;;;;;;;;;;;;;;5068889;28;20450;-61
2023/08/13 14:12:33;;;;;;;;;;;;;;;;;;5060721;28;20014;-61
2023/08/13 14:14:59;;;;;;;;;;;;;;;;;;5061147;28;19921;-61
2023/08/13 14:17:25;;;;;;;;;;;;;;;;;;5065617;28;20481;-61
2023/08/13 14:19:51;;;;;;;;;;;;;;;;;;5065751;28;19932;-61
2023/08/13 14:22:17;;;;;;;;;;;;;;;;;;5055585;28;19955;-61
2023/08/13 14:24:43;;;;;;;;;;;;;;;;;;5063071;28;19956;-61
2023/08/13 14:27:08;;;;;;;;;;;;;;;;;;5069374;28;19938;-61
2023/08/13 14:29:34;;;;;;;;;;;;;;;;;;5074860;28;20292;-61
2023/08/13 14:32:00;;;;;;;;;;;;;;;;;;5074689;28;19925;-61
2023/08/13 14:34:26;;;;;;;;;;;;;;;;;;5069583;28;19920;-61
2023/08/13 14:36:52;;;;;;;;;;;;;;;;;;5070933;28;20376;-61
2023/08/13 14:39:18;;;;;;;;;;;;;;;;;;5066706;28;19932;-61
2023/08/13 14:41:44;;;;;;;;;;;;;;;;;;5065191;28;20290;-61
2023/08/13 14:44:10;;;;;;;;;;;;;;;;;;5065441;28;19920;-62
2023/08/13 14:46:35;;;;;;;;;;;;;;;;;;5066788;28;19971;-61
2023/08/13 14:49:01;;;;;;;;;;;;;;;;;;5067975;28;19982;-61
2023/08/13 14:51:27;;;;;;;;;;;;;;;;;;5064584;28;19931;-61
2023/08/13 14:53:53;;;;;;;;;;;;;;;;;;5069825;28;19921;-61
2023/08/13 14:56:19;;;;;;;;;;;;;;;;;;5064030;28;19924;-61
2023/08/13 14:58:45;;;;;;;;;;;;;;;;;;5063438;28;20344;-61
2023/08/13 15:01:11;;;;;;;;;;;;;;;;;;5054241;28;19929;-61
2023/08/13 15:03:37;;;;;;;;;;;;;;;;;;5065576;28;19936;-61
2023/08/13 15:06:03;;;;;;;;;;;;;;;;;;5059189;28;19925;-61
2023/08/13 15:08:29;;;;;;;;;;;;;;;;;;5059055;28;19924;-62
2023/08/13 15:10:55;;;;;;;;;;;;;;;;;;5057965;28;19978;-61
2023/08/13 15:13:20;;;;;;;;;;;;;;;;;;5055606;28;20007;-61
2023/08/13 15:15:46;;;;;;;;;;;;;;;;;;5060475;28;20424;-61
2023/08/13 15:18:12;;;;;;;;;;;;;;;;;;5070554;28;19928;-61
2023/08/13 15:20:38;;;;;;;;;;;;;;;;;;5060602;28;19986;-61
2023/08/13 15:23:04;;;;;;;;;;;;;;;;;;5068415;28;19920;-61
2023/08/13 15:25:30;;;;;;;;;;;;;;;;;;5064209;28;20325;-62
2023/08/13 15:27:56;;;;;;;;;;;;;;;;;;5063125;28;19925;-62
2023/08/13 15:30:22;;;;;;;;;;;;;;;;;;5057056;28;19924;-61
2023/08/13 15:32:48;;;;;;;;;;;;;;;;;;5071605;28;19920;-61
2023/08/13 15:35:14;;;;;;;;;;;;;;;;;;5061925;28;19920;-61
2023/08/13 15:37:40;;;;;;;;;;;;;;;;;;5058665;28;20221;-61
2023/08/13 15:40:06;;;;;;;;;;;;;;;;;;5059941;28;19928;-61
2023/08/13 15:42:32;;;;;;;;;;;;;;;;;;5044133;28;19928;-61
2023/08/13 15:44:58;;;;;;;;;;;;;;;;;;5063100;28;19924;-61
2023/08/13 15:47:24;;;;;;;;;;;;;;;;;;5070734;28;19928;-61
2023/08/13 15:49:50;;;;;;;;;;;;;;;;;;5074394;28;19924;-61
2023/08/13 15:52:16;;;;;;;;;;;;;;;;;;5054598;28;20503;-61
2023/08/13 15:54:42;;;;;;;;;;;;;;;;;;5073290;28;19924;-61
2023/08/13 15:57:08;;;;;;;;;;;;;;;;;;5066969;28;20026;-62
2023/08/13 15:59:34;;;;;;;;;;;;;;;;;;5065342;28;19967;-61
2023/08/13 16:02:00;;;;;;;;;;;;;;;;;;5064367;28;19967;-61
2023/08/13 16:04:26;;;;;;;;;;;;;;;;;;5061373;28;20565;-61
2023/08/13 16:06:52;;;;;;;;;;;;;;;;;;5071820;28;19928;-61
2023/08/13 16:09:17;;;;;;;;;;;;;;;;;;5067361;28;20286;-61
2023/08/13 16:11:43;;;;;;;;;;;;;;;;;;5071316;28;19927;-61
2023/08/13 16:14:09;;;;;;;;;;;;;;;;;;5061826;28;20097;-61
2023/08/13 16:16:35;;;;;;;;;;;;;;;;;;5067738;28;19925;-61
2023/08/13 16:19:01;;;;;;;;;;;;;;;;;;5068438;28;19961;-61
2023/08/13 16:21:27;;;;;;;;;;;;;;;;;;5079865;28;20606;-61
2023/08/13 16:23:53;;;;;;;;;;;;;;;;;;5071088;28;19924;-61
2023/08/13 16:26:19;;;;;;;;;;;;;;;;;;5069309;28;19934;-61
2023/08/13 16:28:45;;;;;;;;;;;;;;;;;;5070522;28;19999;-61
2023/08/13 16:31:11;;;;;;;;;;;;;;;;;;5072495;28;20062;-61
2023/08/13 16:33:37;;;;;;;;;;;;;;;;;;5064479;28;20354;-61
2023/08/13 16:36:03;;;;;;;;;;;;;;;;;;5065560;28;19928;-61